Time;durP1;ratioP1;P1;durP2;ratioP2;P2;SDS_P1;SDS_P2;PMS_P1;PMS_P2;Temp;Humidity;BMP_temperature;BMP_pressure;BME280_temperature;BME280_humidity;BME280_pressure;Samples;Min_cycle;Max_cycle;Signal;HPM_P1;HPM_P2
2022/11/22 00:01:53;;;;;;;17.00;8.90;;;;;;;0.19;97.19;99726.16;5098964;28;20460;-69
2022/11/22 00:04:20;;;;;;;14.63;6.50;;;;;;;0.24;96.33;99712.88;5096514;28;20460;-70
2022/11/22 00:06:46;;;;;;;23.13;8.93;;;;;;;0.28;97.34;99707.03;5096163;28;20462;-70
2022/11/22 00:09:14;;;;;;;16.83;8.70;;;;;;;0.32;97.26;99692.16;5096464;28;20444;-70
2022/11/22 00:11:41;;;;;;;21.20;8.43;;;;;;;0.29;97.94;99700.66;5098809;28;20464;-70
2022/11/22 00:14:07;;;;;;;15.50;7.50;;;;;;;0.27;97.84;99690.25;5096304;28;20478;-70
2022/11/22 00:16:34;;;;;;;20.93;9.17;;;;;;;0.30;98.27;99691.59;5095775;28;20468;-70
2022/11/22 00:19:01;;;;;;;18.63;7.90;;;;;;;0.32;97.00;99684.19;5096302;28;20447;-70
2022/11/22 00:21:27;;;;;;;21.27;8.27;;;;;;;0.24;97.23;99680.91;5098375;28;20464;-70
2022/11/22 00:23:56;;;;;;;15.87;7.60;;;;;;;0.20;97.00;99684.34;5095457;28;20669;-70
2022/11/22 00:26:24;;;;;;;19.10;7.83;;;;;;;0.13;97.46;99689.88;5097219;28;20464;-70
2022/11/22 00:28:51;;;;;;;19.90;8.27;;;;;;;0.08;97.37;99678.38;5095755;28;20452;-70
2022/11/22 00:31:17;;;;;;;18.47;6.40;;;;;;;0.10;97.22;99684.28;5098450;28;20459;-70
2022/11/22 00:33:44;;;;;;;19.80;8.07;;;;;;;0.08;97.24;99681.84;5095957;28;20464;-69
2022/11/22 00:36:10;;;;;;;16.10;8.07;;;;;;;0.12;96.53;99687.47;5096684;28;20549;-69
2022/11/22 00:38:37;;;;;;;19.83;8.17;;;;;;;0.11;96.16;99692.00;5095959;28;20535;-70
2022/11/22 00:41:04;;;;;;;19.03;8.07;;;;;;;-0.06;96.37;99692.13;5099200;28;20460;-70
2022/11/22 00:43:32;;;;;;;16.53;7.70;;;;;;;-0.08;96.47;99693.44;5095789;28;20498;-70
2022/11/22 00:45:59;;;;;;;15.80;8.33;;;;;;;-0.12;96.99;99695.00;5095193;28;20482;-69
2022/11/22 00:48:26;;;;;;;19.20;7.43;;;;;;;-0.16;96.98;99689.38;5094699;28;20444;-69
2022/11/22 00:50:52;;;;;;;21.00;8.50;;;;;;;-0.21;96.79;99684.00;5098534;28;20530;-69
2022/11/22 00:53:19;;;;;;;14.07;7.70;;;;;;;-0.14;96.84;99686.44;5095650;28;20501;-70
2022/11/22 00:55:46;;;;;;;16.23;7.43;;;;;;;-0.17;96.16;99685.09;5094893;28;20507;-69
2022/11/22 00:58:13;;;;;;;17.63;8.13;;;;;;;-0.17;96.34;99679.00;5095496;28;20459;-68
2022/11/22 01:00:40;;;;;;;13.97;6.27;;;;;;;-0.17;96.48;99671.81;5096932;28;20456;-70
2022/11/22 01:03:10;;;;;;;16.00;7.60;;;;;;;-0.14;96.62;99665.16;5095312;28;20580;-67
2022/11/22 01:05:37;;;;;;;17.80;8.20;;;;;;;-0.12;95.85;99661.19;5094726;28;20915;-67
2022/11/22 01:08:04;;;;;;;18.70;8.77;;;;;;;-0.06;95.56;99670.03;5095277;28;20444;-67
2022/11/22 01:10:31;;;;;;;16.40;8.70;;;;;;;-0.02;95.23;99668.47;5098094;28;20455;-67
2022/11/22 01:12:58;;;;;;;25.17;8.17;;;;;;;-0.03;95.27;99669.53;5094955;28;20473;-68
2022/11/22 01:15:24;;;;;;;16.00;7.37;;;;;;;-0.10;94.51;99664.41;5094554;28;20480;-68
2022/11/22 01:17:52;;;;;;;20.33;8.70;;;;;;;-0.12;96.39;99671.84;5095162;28;20448;-68
2022/11/22 01:20:19;;;;;;;20.07;7.93;;;;;;;-0.08;96.28;99666.81;5097899;28;20456;-67
2022/11/22 01:22:46;;;;;;;21.20;8.87;;;;;;;-0.10;96.93;99674.25;5095158;28;20495;-68
2022/11/22 01:25:12;;;;;;;18.00;8.57;;;;;;;-0.11;96.65;99668.13;5095240;28;20484;-68
2022/11/22 01:27:39;;;;;;;19.03;9.47;;;;;;;-0.10;97.57;99668.91;5095145;28;20541;-67
2022/11/22 01:30:07;;;;;;;20.63;9.00;;;;;;;-0.07;97.49;99677.22;5094485;28;20487;-67
2022/11/22 01:32:33;;;;;;;22.83;8.40;;;;;;;-0.12;96.87;99682.50;5095977;28;20547;-67
2022/11/22 01:35:01;;;;;;;15.67;7.73;;;;;;;-0.21;97.43;99676.03;5093901;28;20499;-67
2022/11/22 01:37:28;;;;;;;18.20;8.33;;;;;;;-0.09;97.23;99678.50;5094462;28;20796;-67
2022/11/22 01:39:54;;;;;;;23.77;9.00;;;;;;;-0.06;97.60;99678.00;5093959;28;20495;-67
2022/11/22 01:42:21;;;;;;;16.20;8.13;;;;;;;-0.14;97.42;99678.47;5097751;28;20460;-67
2022/11/22 01:44:48;;;;;;;17.10;8.73;;;;;;;-0.22;97.58;99673.59;5093933;28;20575;-67
2022/11/22 01:47:17;;;;;;;17.43;8.37;;;;;;;-0.19;97.14;99675.75;5094557;28;20440;-67
2022/11/22 01:49:47;;;;;;;20.03;8.73;;;;;;;-0.28;97.15;99664.78;5095557;28;20896;-67
2022/11/22 01:52:18;;;;;;;21.87;8.87;;;;;;;-0.33;96.95;99670.06;5094499;28;20531;-68
2022/11/22 01:54:48;;;;;;;21.47;8.50;;;;;;;-0.33;97.12;99665.53;5095253;28;20488;-67
2022/11/22 01:57:19;;;;;;;20.60;7.80;;;;;;;-0.33;96.51;99670.06;5093992;28;20446;-66
2022/11/22 01:59:51;;;;;;;17.30;7.63;;;;;;;-0.37;96.13;99669.75;5094228;28;20855;-67
2022/11/22 02:02:18;;;;;;;16.10;7.03;;;;;;;-0.37;96.10;99669.75;5096609;28;20482;-67
2022/11/22 02:04:45;;;;;;;18.13;9.20;;;;;;;-0.38;96.06;99668.16;5094150;28;20580;-67
2022/11/22 02:07:19;;;;;;;19.07;8.53;;;;;;;-0.43;96.66;99676.06;5093856;28;20460;-67
2022/11/22 02:09:48;;;;;;;17.97;9.07;;;;;;;-0.43;96.07;99675.28;5094284;28;20460;-67
2022/11/22 02:12:16;;;;;;;20.47;7.97;;;;;;;-0.45;97.31;99683.50;5095308;28;20543;-67
2022/11/22 02:14:44;;;;;;;19.57;8.73;;;;;;;-0.45;97.95;99682.69;5077028;28;20495;-67
2022/11/22 02:17:11;;;;;;;17.67;7.87;;;;;;;-0.36;98.23;99681.19;5093692;28;20440;-67
2022/11/22 02:19:42;;;;;;;23.33;8.27;;;;;;;-0.36;98.74;99676.66;5094505;28;20463;-67
2022/11/22 02:22:19;;;;;;;21.53;7.73;;;;;;;-0.32;98.28;99666.31;5093590;28;20456;-67
2022/11/22 02:24:53;;;;;;;17.63;8.20;;;;;;;-0.41;96.73;99662.53;5095730;28;20483;-66
2022/11/22 02:27:20;;;;;;;27.13;10.23;;;;;;;-0.39;97.27;99661.22;5093459;28;20921;-69
2022/11/22 02:29:47;;;;;;;19.37;7.47;;;;;;;-0.41;97.23;99641.25;5092845;28;20460;-67
2022/11/22 02:32:14;;;;;;;18.87;7.70;;;;;;;-0.42;97.05;99643.09;5092782;28;21264;-67
2022/11/22 02:34:42;;;;;;;27.20;9.00;;;;;;;-0.54;97.99;99639.78;5095383;28;20508;-69
2022/11/22 02:37:10;;;;;;;26.67;9.43;;;;;;;-0.58;98.35;99636.03;5092728;28;21062;-67
2022/11/22 02:39:38;;;;;;;20.87;8.60;;;;;;;-0.57;97.81;99622.50;5093496;28;20476;-66
2022/11/22 02:42:04;;;;;;;18.47;9.20;;;;;;;-0.57;98.51;99624.34;5092809;28;20442;-66
2022/11/22 02:44:33;;;;;;;20.50;9.10;;;;;;;-0.51;97.90;99624.13;5095516;28;20566;-68
2022/11/22 02:46:59;;;;;;;19.23;8.47;;;;;;;-0.52;97.83;99625.19;5093395;28;20450;-66
2022/11/22 02:49:26;;;;;;;21.17;8.70;;;;;;;-0.43;97.90;99632.72;5092748;28;20937;-68
2022/11/22 02:51:53;;;;;;;23.43;10.60;;;;;;;-0.44;99.22;99629.25;5093007;28;20949;-67
2022/11/22 02:54:20;;;;;;;22.37;7.90;;;;;;;-0.37;99.41;99629.84;5093283;28;20547;-66
2022/11/22 02:56:47;;;;;;;18.70;8.23;;;;;;;-0.35;99.35;99625.09;5096150;28;20469;-67
2022/11/22 02:59:13;;;;;;;19.17;8.07;;;;;;;-0.33;99.70;99627.50;5093341;28;20432;-66
2022/11/22 03:01:43;;;;;;;22.03;9.30;;;;;;;-0.26;99.36;99628.09;5092794;28;20456;-66
2022/11/22 03:04:23;;;;;;;20.20;7.37;;;;;;;-0.19;98.85;99627.88;5093552;28;20480;-67
2022/11/22 03:06:50;;;;;;;14.07;7.00;;;;;;;-0.14;98.67;99634.03;5096160;28;20450;-66
2022/11/22 03:09:17;;;;;;;19.50;9.53;;;;;;;-0.11;98.14;99630.06;5093175;28;20471;-67
2022/11/22 03:11:43;;;;;;;21.33;8.87;;;;;;;-0.09;98.55;99622.63;5091499;28;20496;-68
2022/11/22 03:14:10;;;;;;;25.30;9.97;;;;;;;-0.13;98.35;99618.88;5092369;28;21056;-66
2022/11/22 03:16:36;;;;;;;19.20;9.10;;;;;;;-0.17;97.83;99618.59;5095298;28;20466;-67
2022/11/22 03:19:04;;;;;;;24.00;10.90;;;;;;;-0.17;97.46;99613.25;5092361;28;20965;-66
2022/11/22 03:21:31;;;;;;;17.20;8.40;;;;;;;-0.24;96.94;99609.19;5093109;28;20441;-67
2022/11/22 03:23:57;;;;;;;23.43;10.53;;;;;;;-0.21;96.84;99609.50;5094246;28;20580;-67
2022/11/22 03:26:24;;;;;;;25.50;8.60;;;;;;;-0.20;96.64;99615.63;5096304;28;20467;-70
2022/11/22 03:28:50;;;;;;;24.70;9.07;;;;;;;-0.33;97.65;99607.00;5092768;28;20976;-70
2022/11/22 03:31:17;;;;;;;14.60;6.77;;;;;;;-0.33;97.58;99604.34;5092519;28;20456;-69
2022/11/22 03:33:44;;;;;;;21.40;9.27;;;;;;;-0.33;97.02;99609.66;5092715;28;20505;-69
2022/11/22 03:36:12;;;;;;;20.00;10.50;;;;;;;-0.39;97.64;99613.34;5092419;28;20487;-70
2022/11/22 03:38:38;;;;;;;20.93;8.57;;;;;;;-0.35;97.66;99611.00;5096127;28;20957;-70
2022/11/22 03:41:05;;;;;;;27.70;10.30;;;;;;;-0.36;97.19;99604.84;5112959;28;20941;-70
2022/11/22 03:43:31;;;;;;;18.87;9.13;;;;;;;-0.37;96.97;99600.59;5093982;28;20539;-69
2022/11/22 03:45:58;;;;;;;21.93;10.83;;;;;;;-0.37;97.57;99608.56;5091974;28;21022;-70
2022/11/22 03:48:24;;;;;;;24.80;10.47;;;;;;;-0.40;97.30;99605.59;5095062;28;20487;-70
2022/11/22 03:50:51;;;;;;;20.50;9.70;;;;;;;-0.45;97.69;99602.91;5092449;28;20536;-69
2022/11/22 03:53:19;;;;;;;20.83;9.73;;;;;;;-0.44;98.03;99604.50;5092335;28;20901;-68
2022/11/22 03:55:46;;;;;;;20.73;10.00;;;;;;;-0.43;97.94;99604.25;5092718;28;20531;-69
2022/11/22 03:58:12;;;;;;;22.70;9.70;;;;;;;-0.47;98.16;99594.38;5094095;28;20488;-68
2022/11/22 04:00:39;;;;;;;22.00;9.93;;;;;;;-0.52;98.21;99587.16;5092756;28;20436;-69
2022/11/22 04:03:05;;;;;;;25.17;10.07;;;;;;;-0.48;98.89;99582.16;5091473;28;20462;-69
2022/11/22 04:05:32;;;;;;;23.37;9.87;;;;;;;-0.44;99.16;99569.91;5092283;28;20544;-69
2022/11/22 04:07:58;;;;;;;23.07;9.53;;;;;;;-0.41;99.21;99566.75;5091403;28;20531;-69
2022/11/22 04:10:26;;;;;;;19.60;8.90;;;;;;;-0.37;99.24;99568.66;5092339;28;20499;-68
2022/11/22 04:12:57;;;;;;;22.20;9.63;;;;;;;-0.36;99.65;99569.47;5092727;28;20868;-69
2022/11/22 04:15:23;;;;;;;22.90;10.57;;;;;;;-0.31;99.20;99572.97;5092049;28;20472;-69
2022/11/22 04:17:49;;;;;;;19.07;8.47;;;;;;;-0.42;99.72;99576.59;5093506;28;21063;-69
2022/11/22 04:23:04;;;;;;;21.53;9.17;;;;;;;-0.36;99.81;99575.56;5092420;28;20498;-69
2022/11/22 04:25:33;;;;;;;21.63;9.10;;;;;;;-0.39;100.00;99578.75;5095698;28;20852;-69
2022/11/22 04:28:00;;;;;;;21.53;8.93;;;;;;;-0.38;99.93;99576.91;5098152;28;20447;-69
2022/11/22 04:33:08;;;;;;;22.33;10.37;;;;;;;-0.37;99.54;99579.28;5093725;28;20831;-69
2022/11/22 04:35:35;;;;;;;17.47;8.83;;;;;;;-0.31;99.80;99575.63;5095797;28;20467;-69
2022/11/22 04:38:02;;;;;;;23.47;8.83;;;;;;;-0.26;99.04;99570.34;5098230;28;20861;-69
2022/11/22 04:40:28;;;;;;;18.63;9.30;;;;;;;-0.29;99.02;99573.50;5095913;28;20849;-69
2022/11/22 04:45:40;;;;;;;22.50;8.73;;;;;;;-0.27;98.97;99571.41;5095728;28;20436;-69
2022/11/22 04:48:07;;;;;;;25.47;10.13;;;;;;;-0.28;99.73;99566.34;5097945;28;20464;-70
2022/11/22 04:53:18;;;;;;;22.97;9.63;;;;;;;-0.28;99.41;99551.16;5094855;28;20452;-70
2022/11/22 04:55:47;;;;;;;24.60;9.73;;;;;;;-0.22;99.23;99548.53;5095440;28;20457;-70
2022/11/22 04:58:15;;;;;;;25.93;9.13;;;;;;;-0.22;99.89;99551.19;5098004;28;20452;-70
2022/11/22 05:00:42;;;;;;;25.47;9.77;;;;;;;-0.18;99.12;99544.31;5094878;28;20543;-70
2022/11/22 05:03:09;;;;;;;18.30;8.40;;;;;;;-0.20;99.56;99546.44;5095177;28;20811;-71
2022/11/22 05:05:36;;;;;;;22.37;9.73;;;;;;;-0.26;99.70;99543.75;5095358;28;20888;-71
2022/11/22 05:08:04;;;;;;;23.07;9.23;;;;;;;-0.25;100.00;99544.56;5097853;28;20460;-70
2022/11/22 05:10:55;;;;;;;21.30;9.20;;;;;;;-0.17;100.00;99551.25;5094882;28;20487;-71
2022/11/22 05:13:21;;;;;;;24.23;9.83;;;;;;;-0.11;100.00;99556.34;5094422;28;20803;-71
2022/11/22 05:15:50;;;;;;;28.17;10.77;;;;;;;-0.10;100.00;99562.47;5094675;28;20508;-71
2022/11/22 05:18:17;;;;;;;31.70;10.97;;;;;;;-0.04;100.00;99564.13;5094878;28;20467;-71
2022/11/22 05:20:43;;;;;;;25.83;9.63;;;;;;;0.03;100.00;99564.69;5097514;28;20543;-70
2022/11/22 05:25:54;;;;;;;23.60;9.77;;;;;;;0.04;100.00;99557.50;5094277;28;20894;-72
2022/11/22 05:28:22;;;;;;;26.47;9.73;;;;;;;0.08;100.00;99561.25;5095123;28;20821;-70
2022/11/22 05:30:49;;;;;;;29.33;10.07;;;;;;;0.11;100.00;99572.19;5097121;28;20463;-68
2022/11/22 05:33:15;;;;;;;25.20;10.90;;;;;;;0.01;99.92;99568.69;5094931;28;20437;-69
2022/11/22 05:35:42;;;;;;;20.20;9.23;;;;;;;0.02;100.00;99565.75;5093802;28;20560;-69
2022/11/22 05:38:08;;;;;;;25.60;11.03;;;;;;;0.07;100.00;99563.13;5094378;28;20444;-69
2022/11/22 05:40:35;;;;;;;22.87;9.87;;;;;;;0.09;100.00;99570.84;5096735;28;20547;-69
2022/11/22 05:43:01;;;;;;;26.37;10.80;;;;;;;0.09;99.92;99574.31;5093890;28;20541;-68
2022/11/22 05:45:29;;;;;;;26.17;12.63;;;;;;;0.08;99.64;99579.88;5094210;28;20527;-69
2022/11/22 05:47:56;;;;;;;29.60;10.97;;;;;;;0.13;99.04;99578.06;5093777;28;20891;-68
2022/11/22 05:50:23;;;;;;;29.80;11.40;;;;;;;0.08;100.00;99582.53;5094629;28;20789;-68
2022/11/22 05:52:49;;;;;;;22.73;9.70;;;;;;;0.04;100.00;99579.59;5094766;28;20503;-68
2022/11/22 05:55:16;;;;;;;33.50;11.27;;;;;;;0.15;100.00;99599.13;5094434;28;20539;-69
2022/11/22 05:57:42;;;;;;;28.63;10.13;;;;;;;0.05;99.80;99591.88;5096898;28;20452;-68
2022/11/22 06:00:10;;;;;;;25.60;9.67;;;;;;;0.09;99.45;99587.63;5093511;28;20810;-68
2022/11/22 06:02:38;;;;;;;22.87;10.47;;;;;;;0.08;99.14;99591.34;5074091;28;20447;-68
2022/11/22 06:05:05;;;;;;;28.33;10.40;;;;;;;-0.06;100.00;99580.34;5073741;28;20489;-69
2022/11/22 06:07:31;;;;;;;22.57;10.83;;;;;;;-0.01;100.00;99588.34;5093939;28;21126;-68
2022/11/22 06:09:58;;;;;;;27.80;11.60;;;;;;;0.08;100.00;99588.66;5093977;28;20450;-68
2022/11/22 06:12:24;;;;;;;36.60;11.13;;;;;;;0.11;100.00;99580.19;5093767;28;20875;-69
2022/11/22 06:14:51;;;;;;;25.33;9.70;;;;;;;0.11;100.00;99574.84;5093801;28;20491;-69
2022/11/22 06:17:18;;;;;;;31.87;11.07;;;;;;;0.09;100.00;99581.47;5093697;28;20475;-69
2022/11/22 06:19:45;;;;;;;25.60;9.80;;;;;;;0.14;100.00;99581.53;5093178;28;20547;-69
2022/11/22 06:22:12;;;;;;;26.60;10.70;;;;;;;0.20;100.00;99583.97;5094059;28;20437;-69
2022/11/22 06:24:39;;;;;;;26.63;12.10;;;;;;;0.14;100.00;99593.00;5093362;28;20571;-69
2022/11/22 06:27:05;;;;;;;31.93;10.70;;;;;;;0.02;100.00;99594.22;5093523;28;20448;-69
2022/11/22 06:29:32;;;;;;;32.10;11.57;;;;;;;0.10;100.00;99591.91;5096868;28;20460;-69
2022/11/22 06:31:58;;;;;;;30.00;11.90;;;;;;;0.14;100.00;99587.66;5093494;28;20963;-69
2022/11/22 06:34:25;;;;;;;27.23;11.23;;;;;;;0.17;100.00;99591.66;5095925;28;20511;-69
2022/11/22 06:36:53;;;;;;;21.40;10.27;;;;;;;0.17;100.00;99594.31;5093770;28;20446;-69
2022/11/22 06:39:20;;;;;;;25.80;10.97;;;;;;;0.20;100.00;99605.25;5093598;28;20456;-69
2022/11/22 06:41:46;;;;;;;31.30;11.20;;;;;;;0.25;100.00;99599.97;5093709;28;20437;-69
2022/11/22 06:44:13;;;;;;;24.77;10.67;;;;;;;0.29;100.00;99602.91;5095339;28;20497;-69
2022/11/22 06:46:39;;;;;;;30.93;12.23;;;;;;;0.25;99.71;99610.63;5095283;28;20547;-70
2022/11/22 06:49:06;;;;;;;25.77;11.97;;;;;;;0.24;100.00;99606.34;5093182;28;20894;-68
2022/11/22 06:51:33;;;;;;;28.87;11.23;;;;;;;0.32;100.00;99620.25;5093489;28;20482;-69
2022/11/22 06:54:01;;;;;;;30.67;11.70;;;;;;;0.27;100.00;99617.53;5095056;28;20457;-69
2022/11/22 06:56:30;;;;;;;28.33;10.40;;;;;;;0.24;100.00;99619.66;5092921;28;20486;-69
2022/11/22 06:58:57;;;;;;;25.10;10.90;;;;;;;0.17;99.77;99611.09;5094044;28;20467;-70
2022/11/22 07:01:25;;;;;;;31.00;10.20;;;;;;;0.16;100.00;99606.03;5094297;28;20527;-68
2022/11/22 07:03:54;;;;;;;23.37;10.20;;;;;;;0.23;100.00;99610.09;5092836;28;20467;-69
2022/11/22 07:06:21;;;;;;;24.03;9.73;;;;;;;0.23;100.00;99617.28;5093545;28;20997;-72
2022/11/22 07:08:48;;;;;;;23.33;10.17;;;;;;;0.24;100.00;99617.00;5092732;28;20539;-72
2022/11/22 07:11:18;;;;;;;26.50;9.40;;;;;;;0.20;100.00;99621.25;5096191;28;20459;-73
2022/11/22 07:13:46;;;;;;;28.97;10.67;;;;;;;0.28;100.00;99622.63;5092747;28;20492;-70
2022/11/22 07:16:14;;;;;;;35.87;10.37;;;;;;;0.32;100.00;99622.91;5091966;28;20906;-70
2022/11/22 07:18:41;;;;;;;26.50;11.30;;;;;;;0.30;100.00;99631.16;5112480;28;20530;-70
2022/11/22 07:21:09;;;;;;;29.63;10.30;;;;;;;0.29;100.00;99626.88;5113583;28;20450;-70
2022/11/22 07:23:36;;;;;;;24.10;10.50;;;;;;;0.35;100.00;99627.72;5113483;28;20443;-70
2022/11/22 07:26:03;;;;;;;22.73;9.57;;;;;;;0.47;100.00;99638.97;5113050;28;20483;-71
2022/11/22 07:28:31;;;;;;;25.13;9.00;;;;;;;0.47;100.00;99637.13;5113486;28;20814;-71
2022/11/22 07:30:59;;;;;;;26.37;11.40;;;;;;;0.52;100.00;99628.34;5113499;28;20474;-70
2022/11/22 07:33:25;;;;;;;27.00;9.83;;;;;;;0.58;100.00;99626.53;5113104;28;20526;-71
2022/11/22 07:35:52;;;;;;;28.27;11.60;;;;;;;0.61;100.00;99634.78;5113312;28;20895;-70
2022/11/22 07:38:19;;;;;;;24.33;9.83;;;;;;;0.65;100.00;99621.75;5113616;28;20478;-69
2022/11/22 07:40:46;;;;;;;24.07;9.97;;;;;;;0.72;100.00;99625.00;5113401;28;20445;-70
2022/11/22 07:43:12;;;;;;;25.70;10.57;;;;;;;0.75;100.00;99627.13;5113421;28;20435;-73
2022/11/22 07:45:40;;;;;;;19.83;9.27;;;;;;;0.73;100.00;99624.72;5112879;28;21035;-70
2022/11/22 07:48:07;;;;;;;20.63;9.57;;;;;;;0.71;100.00;99610.88;5113349;28;20439;-70
2022/11/22 07:50:33;;;;;;;24.07;10.80;;;;;;;0.71;99.62;99600.22;5113272;28;20866;-70
2022/11/22 07:53:01;;;;;;;29.57;13.00;;;;;;;0.66;99.38;99594.84;5113280;28;20811;-69
2022/11/22 07:55:28;;;;;;;22.90;10.60;;;;;;;0.56;99.78;99594.81;5112733;28;20995;-70
2022/11/22 07:57:54;;;;;;;23.40;10.40;;;;;;;0.71;99.99;99586.91;5115088;28;20435;-71
2022/11/22 08:00:21;;;;;;;22.37;8.80;;;;;;;0.74;99.59;99586.34;5117124;28;20475;-70
2022/11/22 08:02:49;;;;;;;21.97;9.93;;;;;;;0.82;99.95;99594.91;5117135;28;20470;-70
2022/11/22 08:05:16;;;;;;;27.73;10.53;;;;;;;0.84;99.38;99580.28;5116964;28;20515;-70
2022/11/22 08:07:47;;;;;;;33.47;11.43;;;;;;;0.80;99.09;99575.72;5117106;28;20450;-69
2022/11/22 08:10:13;;;;;;;22.47;9.57;;;;;;;0.88;99.15;99575.22;5117051;28;20432;-70
2022/11/22 08:12:40;;;;;;;33.03;10.20;;;;;;;0.83;98.57;99575.19;5116934;28;20439;-70
2022/11/22 08:15:08;;;;;;;25.00;9.40;;;;;;;0.92;98.86;99573.63;5116568;28;20888;-70
2022/11/22 08:17:34;;;;;;;30.57;11.80;;;;;;;0.96;98.12;99572.84;5116576;28;20442;-69
2022/11/22 08:20:03;;;;;;;28.70;10.30;;;;;;;1.01;97.60;99564.03;5116828;28;20439;-69
2022/11/22 08:22:29;;;;;;;27.97;9.97;;;;;;;1.00;98.09;99565.91;5116751;28;20479;-70
2022/11/22 08:24:56;;;;;;;25.43;10.07;;;;;;;1.00;98.34;99570.44;5113043;28;20495;-70
2022/11/22 08:27:23;;;;;;;30.80;10.53;;;;;;;0.99;98.85;99579.50;5097241;28;21037;-70
2022/11/22 08:29:50;;;;;;;33.20;12.83;;;;;;;1.04;98.31;99581.41;5096860;28;21041;-69
2022/11/22 08:32:16;;;;;;;30.40;12.20;;;;;;;1.03;99.49;99580.59;5098006;28;20544;-69
2022/11/22 08:34:43;;;;;;;32.47;10.50;;;;;;;0.98;99.56;99572.59;5096532;28;20486;-69
2022/11/22 08:37:11;;;;;;;28.27;10.47;;;;;;;1.06;99.87;99577.38;5097941;28;20560;-69
2022/11/22 08:39:37;;;;;;;23.50;10.77;;;;;;;1.17;99.20;99581.69;5095530;28;20460;-69
2022/11/22 08:42:05;;;;;;;35.60;11.63;;;;;;;1.18;98.99;99580.63;5095539;28;20480;-69
2022/11/22 08:44:32;;;;;;;22.10;10.57;;;;;;;1.22;98.92;99584.38;5095805;28;20464;-70
2022/11/22 08:46:59;;;;;;;25.90;9.53;;;;;;;1.27;98.62;99589.69;5094305;28;20547;-70
2022/11/22 08:49:25;;;;;;;24.33;9.67;;;;;;;1.22;98.63;99584.38;5095852;28;20480;-69
2022/11/22 08:51:52;;;;;;;28.00;11.07;;;;;;;1.28;98.85;99595.84;5095870;28;20810;-69
2022/11/22 08:54:19;;;;;;;25.50;10.90;;;;;;;1.22;99.42;99597.69;5095172;28;20895;-70
2022/11/22 08:56:46;;;;;;;27.50;11.47;;;;;;;1.27;99.41;99603.03;5095757;28;20460;-70
2022/11/22 08:59:13;;;;;;;33.67;12.63;;;;;;;1.24;99.42;99605.44;5098195;28;20914;-70
2022/11/22 09:01:39;;;;;;;23.00;9.60;;;;;;;1.31;99.46;99619.31;5095604;28;20447;-70
2022/11/22 09:04:06;;;;;;;31.00;12.77;;;;;;;1.40;99.58;99612.41;5094981;28;20472;-70
2022/11/22 09:06:32;;;;;;;24.63;10.33;;;;;;;1.46;98.99;99623.88;5095378;28;20571;-70
2022/11/22 09:08:59;;;;;;;31.23;12.13;;;;;;;1.49;98.49;99621.47;5096778;28;20492;-70
2022/11/22 09:11:27;;;;;;;28.77;10.80;;;;;;;1.46;98.37;99623.88;5095320;28;20538;-71
2022/11/22 09:13:53;;;;;;;31.30;12.10;;;;;;;1.36;99.10;99619.31;5094708;28;20459;-70
2022/11/22 09:16:20;;;;;;;26.57;12.33;;;;;;;1.37;99.15;99628.13;5095256;28;20433;-70
2022/11/22 09:18:48;;;;;;;28.70;12.87;;;;;;;1.35;99.59;99624.94;5098039;28;20452;-71
2022/11/22 09:21:18;;;;;;;34.00;12.80;;;;;;;1.50;99.25;99624.94;5095148;28;20436;-70
2022/11/22 09:23:46;;;;;;;27.87;11.10;;;;;;;1.48;98.92;99625.22;5094540;28;20464;-69
2022/11/22 09:26:15;;;;;;;25.87;10.60;;;;;;;1.51;98.64;99631.91;5094805;28;20575;-70
2022/11/22 09:28:43;;;;;;;28.70;11.20;;;;;;;1.49;99.21;99632.16;5095915;28;20486;-71
2022/11/22 09:31:11;;;;;;;26.40;10.90;;;;;;;1.57;99.12;99638.06;5095060;28;20444;-71
2022/11/22 09:33:40;;;;;;;27.40;11.27;;;;;;;1.58;98.23;99642.31;5094427;28;20499;-70
2022/11/22 09:36:09;;;;;;;25.70;11.33;;;;;;;1.43;98.42;99643.09;5094818;28;20594;-71
2022/11/22 09:38:36;;;;;;;25.50;9.93;;;;;;;1.46;99.23;99639.88;5097058;28;20448;-70
2022/11/22 09:41:20;;;;;;;32.37;11.43;;;;;;;1.53;99.29;99648.44;5115314;28;20443;-71
2022/11/22 09:44:00;;;;;;;32.93;12.43;;;;;;;1.54;99.70;99647.38;5108373;28;20802;-70
2022/11/22 09:46:40;;;;;;;32.43;12.20;;;;;;;1.47;99.02;99663.66;5094704;28;20533;-71
2022/11/22 09:49:25;;;;;;;47.70;13.70;;;;;;;1.46;99.29;99659.38;5097255;28;20460;-71
2022/11/22 09:51:58;;;;;;;28.50;12.00;;;;;;;1.45;99.83;99665.75;5094769;28;20428;-71
2022/11/22 09:54:29;;;;;;;31.43;11.80;;;;;;;1.43;99.73;99669.78;5093401;28;20493;-71
2022/11/22 09:57:00;;;;;;;28.90;11.17;;;;;;;1.48;99.70;99667.13;5094167;28;20456;-71
2022/11/22 09:59:32;;;;;;;29.33;11.50;;;;;;;1.53;99.45;99672.47;5096726;28;20511;-71
2022/11/22 10:02:04;;;;;;;28.77;10.90;;;;;;;1.61;99.67;99666.63;5094547;28;20429;-71
2022/11/22 10:04:37;;;;;;;38.47;12.57;;;;;;;1.60;100.00;99669.56;5094061;28;20498;-71
2022/11/22 10:07:11;;;;;;;29.90;11.87;;;;;;;1.64;100.00;99663.44;5094617;28;20555;-71
2022/11/22 10:09:43;;;;;;;29.97;12.13;;;;;;;1.74;100.00;99655.41;5096883;28;20838;-71
2022/11/22 10:12:15;;;;;;;24.20;11.10;;;;;;;1.80;99.71;99658.09;5093717;28;20886;-70
2022/11/22 10:14:49;;;;;;;30.43;11.07;;;;;;;1.87;98.83;99653.31;5094279;28;20456;-71
2022/11/22 10:17:27;;;;;;;33.47;12.37;;;;;;;1.79;98.70;99651.16;5093948;28;20506;-71
2022/11/22 10:20:02;;;;;;;34.63;10.60;;;;;;;1.76;99.70;99652.47;5094306;28;20452;-71
2022/11/22 10:22:30;;;;;;;26.70;11.07;;;;;;;1.81;99.83;99659.69;5094628;28;20468;-69
2022/11/22 10:24:58;;;;;;;29.17;10.87;;;;;;;1.93;99.09;99653.03;5093847;28;20465;-70
2022/11/22 10:27:29;;;;;;;36.00;12.13;;;;;;;1.95;99.18;99655.44;5093534;28;20460;-70
2022/11/22 10:30:02;;;;;;;31.63;11.83;;;;;;;1.96;98.54;99643.69;5093664;28;20883;-71
2022/11/22 10:32:37;;;;;;;35.57;13.77;;;;;;;2.00;98.41;99652.78;5096486;28;20458;-71
2022/11/22 10:35:22;;;;;;;28.30;11.70;;;;;;;1.92;99.37;99658.63;5093947;28;20472;-70
2022/11/22 10:37:55;;;;;;;29.37;12.90;;;;;;;2.06;98.98;99656.22;5092950;28;20811;-71
2022/11/22 10:40:27;;;;;;;44.03;12.23;;;;;;;2.19;98.15;99664.50;5093934;28;20429;-71
2022/11/22 10:43:20;;;;;;;32.93;12.43;;;;;;;2.21;97.34;99669.56;5096524;28;20537;-70
2022/11/22 10:45:55;;;;;;;29.50;11.83;;;;;;;2.09;98.41;99677.88;5093454;28;20524;-67
2022/11/22 10:48:31;;;;;;;31.10;12.73;;;;;;;2.10;98.72;99668.78;5094906;28;20461;-70
2022/11/22 10:51:10;;;;;;;27.67;12.20;;;;;;;2.16;98.42;99667.69;5093578;28;20491;-70
2022/11/22 10:53:49;;;;;;;31.93;11.80;;;;;;;2.16;97.80;99665.03;5086964;28;20491;-70
2022/11/22 10:56:26;;;;;;;29.73;12.17;;;;;;;2.16;98.19;99664.22;5093530;28;20799;-70
2022/11/22 10:59:04;;;;;;;27.07;11.97;;;;;;;2.21;97.71;99659.72;5093143;28;20776;-70
2022/11/22 11:01:42;;;;;;;28.43;11.83;;;;;;;2.20;99.24;99657.28;5093488;28;20791;-70
2022/11/22 11:04:12;;;;;;;30.13;10.97;;;;;;;2.23;98.97;99646.88;5093405;28;20468;-70
2022/11/22 11:06:42;;;;;;;43.43;11.63;;;;;;;2.24;98.88;99647.66;5093348;28;20504;-70
2022/11/22 11:09:12;;;;;;;28.30;10.53;;;;;;;2.17;100.00;99644.47;5093347;28;20428;-70
2022/11/22 11:11:41;;;;;;;32.83;12.60;;;;;;;2.19;100.00;99642.34;5093285;28;20496;-70
2022/11/22 11:14:17;;;;;;;30.43;12.20;;;;;;;2.31;100.00;99642.06;5092968;28;20461;-70
2022/11/22 11:16:46;;;;;;;34.40;12.10;;;;;;;2.37;100.00;99632.97;5093218;28;20424;-70
2022/11/22 11:19:17;;;;;;;33.17;12.87;;;;;;;2.41;100.00;99640.16;5093310;28;20440;-70
2022/11/22 11:21:44;;;;;;;38.37;11.87;;;;;;;2.49;100.00;99636.16;5093223;28;20461;-70
2022/11/22 11:24:14;;;;;;;32.47;11.57;;;;;;;2.54;100.00;99636.13;5092875;28;20464;-70
2022/11/22 11:26:42;;;;;;;32.30;11.83;;;;;;;2.60;99.99;99640.38;5092620;28;20480;-70
2022/11/22 11:29:38;;;;;;;32.57;11.50;;;;;;;2.63;99.79;99639.84;5093170;28;20516;-70
2022/11/22 11:32:09;;;;;;;31.33;12.67;;;;;;;2.67;100.00;99629.41;5093720;28;20476;-70
2022/11/22 11:34:38;;;;;;;26.77;11.43;;;;;;;2.66;98.98;99627.81;5097127;28;20464;-70
2022/11/22 11:37:05;;;;;;;31.97;12.73;;;;;;;2.64;98.89;99636.09;5096891;28;21004;-70
2022/11/22 11:39:33;;;;;;;37.77;11.77;;;;;;;2.55;99.38;99632.38;5096999;28;20442;-69
2022/11/22 11:42:01;;;;;;;30.63;11.90;;;;;;;2.49;99.28;99630.81;5095217;28;20448;-70
2022/11/22 11:44:30;;;;;;;32.37;12.70;;;;;;;2.58;99.28;99636.41;5095478;28;20477;-70